createdAt,value
2023-05-03T00:00:08.875Z,0.00
2023-05-03T00:01:08.610Z,0.00
2023-05-03T00:02:08.733Z,0.00
2023-05-03T00:03:08.707Z,0.00
2023-05-03T00:04:08.569Z,0.00
2023-05-03T00:05:08.609Z,0.00
2023-05-03T00:06:08.576Z,0.00
2023-05-03T00:07:08.532Z,0.00
2023-05-03T00:08:08.515Z,0.00
2023-05-03T00:09:08.522Z,0.00
2023-05-03T00:10:08.487Z,0.00
2023-05-03T00:11:08.472Z,0.00
2023-05-03T00:12:08.459Z,0.00
2023-05-03T00:13:08.445Z,0.00
2023-05-03T00:14:08.430Z,0.00
2023-05-03T00:15:08.421Z,0.00
2023-05-03T00:16:08.404Z,0.00
2023-05-03T00:17:08.444Z,0.00
2023-05-03T00:18:08.723Z,0.00
2023-05-03T00:19:12.632Z,0.00
2023-05-03T00:20:09.406Z,0.00
2023-05-03T00:21:08.333Z,0.00
2023-05-03T00:22:08.329Z,0.00
2023-05-03T00:23:08.305Z,0.00
2023-05-03T00:24:08.298Z,0.00
2023-05-03T00:25:08.289Z,0.00
2023-05-03T00:26:08.269Z,0.00
2023-05-03T00:27:08.250Z,0.00
2023-05-03T00:28:08.240Z,0.00
2023-05-03T00:29:08.227Z,0.00
2023-05-03T00:30:08.218Z,0.00
2023-05-03T00:31:08.245Z,0.00
2023-05-03T00:32:08.189Z,0.00
2023-05-03T00:33:08.280Z,0.00
2023-05-03T00:34:08.185Z,0.00
2023-05-03T00:35:08.156Z,0.00
2023-05-03T00:36:08.144Z,0.00
2023-05-03T00:37:08.133Z,0.00
2023-05-03T00:38:08.111Z,0.00
2023-05-03T00:39:08.099Z,0.00
2023-05-03T00:40:08.085Z,0.00
2023-05-03T00:41:08.128Z,0.00
2023-05-03T00:42:08.208Z,0.00
2023-05-03T00:43:08.052Z,0.00
2023-05-03T00:44:08.036Z,0.00
2023-05-03T00:45:08.067Z,0.00
2023-05-03T00:46:16.067Z,0.00
2023-05-03T00:47:09.130Z,0.00
2023-05-03T00:48:08.245Z,0.00
2023-05-03T00:49:08.321Z,0.00
2023-05-03T00:50:07.988Z,0.00
2023-05-03T00:51:07.934Z,0.00
2023-05-03T00:52:07.929Z,0.00
2023-05-03T00:53:07.910Z,0.00
2023-05-03T00:54:07.900Z,0.00
2023-05-03T00:55:07.882Z,0.00
2023-05-03T00:56:07.876Z,0.00
2023-05-03T00:57:07.859Z,0.00
2023-05-03T00:58:07.846Z,0.00
2023-05-03T00:59:07.831Z,0.00
2023-05-03T01:00:07.821Z,0.00
2023-05-03T01:01:09.269Z,0.00
2023-05-03T01:02:08.050Z,0.00
2023-05-03T01:03:07.911Z,0.00
2023-05-03T01:04:07.839Z,0.00
2023-05-03T01:05:07.752Z,0.00
2023-05-03T01:06:07.833Z,0.00
2023-05-03T01:07:07.841Z,0.00
2023-05-03T01:08:07.708Z,0.00
2023-05-03T01:09:07.851Z,0.00
2023-05-03T01:10:07.685Z,0.00
2023-05-03T01:11:07.670Z,0.00
2023-05-03T01:12:07.822Z,0.00
2023-05-03T01:13:07.657Z,0.00
2023-05-03T01:14:07.640Z,0.00
2023-05-03T01:15:07.617Z,0.00
2023-05-03T01:16:07.674Z,0.00
2023-05-03T01:17:07.588Z,0.00
2023-05-03T01:18:07.729Z,0.00
2023-05-03T01:19:07.636Z,0.00
2023-05-03T01:20:07.947Z,0.00
2023-05-03T01:21:08.388Z,0.00
2023-05-03T01:22:07.732Z,0.00
2023-05-03T01:23:07.513Z,0.00
2023-05-03T01:24:07.875Z,0.00
2023-05-03T01:25:07.831Z,0.00
2023-05-03T01:26:07.678Z,0.00
2023-05-03T01:27:07.755Z,0.00
2023-05-03T01:28:07.870Z,0.00
2023-05-03T01:29:07.775Z,0.00
2023-05-03T01:30:07.416Z,0.00
2023-05-03T01:31:07.631Z,0.00
2023-05-03T01:32:07.538Z,0.00
2023-05-03T01:33:07.569Z,0.00
2023-05-03T01:34:07.373Z,0.00
2023-05-03T01:35:07.348Z,0.00
2023-05-03T01:36:07.340Z,0.00
2023-05-03T01:37:07.324Z,0.00
2023-05-03T01:38:07.328Z,0.00
2023-05-03T01:39:07.296Z,0.00
2023-05-03T01:40:07.292Z,0.00
2023-05-03T01:41:07.276Z,0.00
2023-05-03T01:42:07.278Z,0.00
2023-05-03T01:43:07.238Z,0.00
2023-05-03T01:44:07.242Z,0.00
2023-05-03T01:45:07.231Z,0.00
2023-05-03T01:46:07.362Z,0.00
2023-05-03T01:47:07.194Z,0.00
2023-05-03T01:48:07.239Z,0.00
2023-05-03T01:49:07.167Z,0.00
2023-05-03T01:50:07.150Z,0.00
2023-05-03T01:51:07.139Z,0.00
2023-05-03T01:52:07.126Z,0.00
2023-05-03T01:53:07.114Z,0.00
2023-05-03T01:54:07.117Z,0.00
2023-05-03T01:55:07.083Z,0.00
2023-05-03T01:56:07.068Z,0.00
2023-05-03T01:57:07.054Z,0.00
2023-05-03T01:58:07.045Z,0.00
2023-05-03T01:59:07.030Z,0.00
2023-05-03T02:00:07.034Z,0.00
2023-05-03T02:01:07.081Z,0.00
2023-05-03T02:02:06.992Z,0.00
2023-05-03T02:03:07.072Z,0.00
2023-05-03T02:04:07.069Z,0.00
2023-05-03T02:05:06.959Z,0.00
2023-05-03T02:06:06.995Z,0.00
2023-05-03T02:07:06.929Z,0.00
2023-05-03T02:08:06.913Z,0.00
2023-05-03T02:09:07.262Z,0.00
2023-05-03T02:10:06.933Z,0.00
2023-05-03T02:11:06.893Z,0.00
2023-05-03T02:12:06.857Z,0.00
2023-05-03T02:13:06.855Z,0.00
2023-05-03T02:14:06.836Z,0.00
2023-05-03T02:15:06.814Z,0.00
2023-05-03T02:16:06.803Z,0.00
2023-05-03T02:17:06.829Z,0.00
2023-05-03T02:18:06.911Z,0.00
2023-05-03T02:19:06.762Z,0.00
2023-05-03T02:20:06.744Z,0.00
2023-05-03T02:21:06.737Z,0.00
2023-05-03T02:22:06.713Z,0.00
2023-05-03T02:23:06.706Z,0.00
2023-05-03T02:24:06.719Z,0.00
2023-05-03T02:25:06.682Z,0.00
2023-05-03T02:26:06.696Z,0.00
2023-05-03T02:27:06.655Z,0.00
2023-05-03T02:28:06.646Z,0.00
2023-05-03T02:29:06.625Z,0.00
2023-05-03T02:30:06.891Z,0.00
2023-05-03T02:31:06.777Z,0.00
2023-05-03T02:32:06.588Z,0.00
2023-05-03T02:33:06.628Z,0.00
2023-05-03T02:34:06.911Z,0.00
2023-05-03T02:35:06.551Z,0.00
2023-05-03T02:36:06.554Z,0.00
2023-05-03T02:37:06.551Z,0.00
2023-05-03T02:38:06.533Z,0.00
2023-05-03T02:39:06.489Z,0.00
2023-05-03T02:40:06.527Z,0.00
2023-05-03T02:41:06.473Z,0.00
2023-05-03T02:42:06.471Z,0.00
2023-05-03T02:43:06.434Z,0.00
2023-05-03T02:44:06.431Z,0.00
2023-05-03T02:45:06.517Z,0.00
2023-05-03T02:46:06.424Z,0.00
2023-05-03T02:47:06.390Z,0.00
2023-05-03T02:48:06.395Z,0.00
2023-05-03T02:49:06.382Z,0.00
2023-05-03T02:50:06.578Z,0.00
2023-05-03T02:51:06.350Z,0.00
2023-05-03T02:52:06.319Z,0.00
2023-05-03T02:53:06.310Z,0.00
2023-05-03T02:54:06.289Z,0.00
2023-05-03T02:55:06.277Z,0.00
2023-05-03T02:56:06.268Z,0.00
2023-05-03T02:57:06.252Z,0.00
2023-05-03T02:58:06.276Z,0.00
2023-05-03T02:59:06.216Z,0.00
2023-05-03T03:00:06.487Z,0.00
2023-05-03T03:01:06.277Z,0.00
2023-05-03T03:02:06.291Z,0.00
2023-05-03T03:03:06.227Z,0.00
2023-05-03T03:04:06.298Z,0.00
2023-05-03T03:05:06.139Z,0.00
2023-05-03T03:06:06.138Z,0.00
2023-05-03T03:07:06.179Z,0.00
2023-05-03T03:08:06.099Z,0.00
2023-05-03T03:09:06.084Z,0.00
2023-05-03T03:10:06.080Z,0.00
2023-05-03T03:11:06.055Z,0.00
2023-05-03T03:12:06.045Z,0.00
2023-05-03T03:13:06.028Z,0.00
2023-05-03T03:14:06.037Z,0.00
2023-05-03T03:15:06.004Z,0.00
2023-05-03T03:16:06.025Z,0.00
2023-05-03T03:17:05.980Z,0.00
2023-05-03T03:18:06.053Z,0.00
2023-05-03T03:19:05.949Z,0.00
2023-05-03T03:20:05.937Z,0.00
2023-05-03T03:21:05.923Z,0.00
2023-05-03T03:22:05.923Z,0.00
2023-05-03T03:23:05.892Z,0.00
2023-05-03T03:24:05.976Z,0.00
2023-05-03T03:25:05.865Z,0.00
2023-05-03T03:26:05.859Z,0.00
2023-05-03T03:27:05.889Z,0.00
2023-05-03T03:28:05.924Z,0.00
2023-05-03T03:29:05.812Z,0.00
2023-05-03T03:30:06.197Z,4.00
2023-05-03T03:31:05.797Z,4.00
2023-05-03T03:32:05.833Z,0.00
2023-05-03T03:33:05.915Z,0.00
2023-05-03T03:34:05.750Z,4.00
2023-05-03T03:35:05.884Z,0.00
2023-05-03T03:36:05.726Z,4.00
2023-05-03T03:37:05.910Z,4.00
2023-05-03T03:38:05.696Z,4.00
2023-05-03T03:39:05.928Z,8.00
2023-05-03T03:40:05.707Z,8.00
2023-05-03T03:41:05.905Z,8.00
2023-05-03T03:42:05.656Z,8.00
2023-05-03T03:43:06.024Z,12.00
2023-05-03T03:44:05.609Z,12.00
2023-05-03T03:45:05.600Z,12.00
2023-05-03T03:46:05.612Z,16.00
2023-05-03T03:47:05.649Z,20.00
2023-05-03T03:48:05.593Z,20.00
2023-05-03T03:49:05.547Z,24.00
2023-05-03T03:50:05.849Z,28.00
2023-05-03T03:51:05.524Z,28.00
2023-05-03T03:52:05.509Z,32.00
2023-05-03T03:53:05.492Z,40.00
2023-05-03T03:54:05.489Z,44.00
2023-05-03T03:55:05.527Z,52.00
2023-05-03T03:56:05.451Z,60.00
2023-05-03T03:57:05.431Z,64.00
2023-05-03T03:58:05.446Z,72.00
2023-05-03T03:59:05.418Z,80.00
2023-05-03T04:00:05.599Z,84.00
2023-05-03T04:01:05.384Z,92.00
2023-05-03T04:02:05.410Z,100.00
2023-05-03T04:03:07.405Z,108.00
2023-05-03T04:04:05.449Z,120.00
2023-05-03T04:05:05.418Z,132.00
2023-05-03T04:06:05.376Z,140.00
2023-05-03T04:07:05.308Z,152.00
2023-05-03T04:08:05.309Z,164.00
2023-05-03T04:09:05.279Z,176.00
2023-05-03T04:10:05.648Z,188.00
2023-05-03T04:11:05.248Z,200.00
2023-05-03T04:12:05.238Z,212.00
2023-05-03T04:13:05.220Z,224.00
2023-05-03T04:14:05.209Z,236.00
2023-05-03T04:15:05.196Z,252.00
2023-05-03T04:16:05.185Z,272.00
2023-05-03T04:17:05.230Z,284.00
2023-05-03T04:18:05.239Z,304.00
2023-05-03T04:19:05.148Z,316.00
2023-05-03T04:20:05.299Z,332.00
2023-05-03T04:21:05.116Z,340.00
2023-05-03T04:22:05.100Z,352.00
2023-05-03T04:23:05.105Z,368.00
2023-05-03T04:24:05.076Z,384.00
2023-05-03T04:25:05.065Z,404.00
2023-05-03T04:26:05.521Z,424.00
2023-05-03T04:27:05.045Z,448.00
2023-05-03T04:28:05.021Z,472.00
2023-05-03T04:29:05.015Z,492.00
2023-05-03T04:30:05.295Z,492.00
2023-05-03T04:31:05.030Z,488.00
2023-05-03T04:32:04.968Z,500.00
2023-05-03T04:33:05.029Z,504.00
2023-05-03T04:34:04.979Z,512.00
2023-05-03T04:35:04.931Z,520.00
2023-05-03T04:36:04.912Z,536.00
2023-05-03T04:37:04.906Z,540.00
2023-05-03T04:38:04.884Z,548.00
2023-05-03T04:39:04.869Z,556.00
2023-05-03T04:40:05.140Z,564.00
2023-05-03T04:41:04.843Z,568.00
2023-05-03T04:42:04.829Z,564.00
2023-05-03T04:43:04.816Z,572.00
2023-05-03T04:44:04.907Z,568.00
2023-05-03T04:45:04.793Z,564.00
2023-05-03T04:46:04.802Z,568.00
2023-05-03T04:47:04.762Z,568.00
2023-05-03T04:48:04.796Z,584.00
2023-05-03T04:49:04.747Z,596.00
2023-05-03T04:50:05.094Z,592.00
2023-05-03T04:51:04.736Z,620.00
2023-05-03T04:52:04.702Z,636.00
2023-05-03T04:53:04.688Z,648.00
2023-05-03T04:54:04.672Z,668.00
2023-05-03T04:55:04.692Z,700.00
2023-05-03T04:56:04.660Z,724.00
2023-05-03T04:57:04.628Z,752.00
2023-05-03T04:58:04.625Z,780.00
2023-05-03T04:59:04.623Z,804.00
2023-05-03T05:00:04.884Z,832.00
2023-05-03T05:01:04.599Z,872.00
2023-05-03T05:02:04.637Z,900.00
2023-05-03T05:03:04.649Z,928.00
2023-05-03T05:04:04.635Z,960.00
2023-05-03T05:05:04.536Z,1004.00
2023-05-03T05:06:04.604Z,1032.00
2023-05-03T05:07:04.501Z,1056.00
2023-05-03T05:08:04.492Z,1072.00
2023-05-03T05:09:04.470Z,1100.00
2023-05-03T05:10:04.717Z,1112.00
2023-05-03T05:11:04.448Z,1112.00
2023-05-03T05:12:04.587Z,1140.00
2023-05-03T05:13:04.413Z,1160.00
2023-05-03T05:14:04.401Z,1200.00
2023-05-03T05:15:04.410Z,1204.00
2023-05-03T05:16:04.382Z,1208.00
2023-05-03T05:17:04.413Z,1220.00
2023-05-03T05:18:04.413Z,1208.00
2023-05-03T05:19:04.347Z,1208.00
2023-05-03T05:20:04.730Z,1188.00
2023-05-03T05:21:04.322Z,1212.00
2023-05-03T05:22:04.337Z,1240.00
2023-05-03T05:23:04.277Z,1252.00
2023-05-03T05:24:04.471Z,1224.00
2023-05-03T05:25:04.251Z,1244.00
2023-05-03T05:26:04.238Z,1288.00
2023-05-03T05:27:04.221Z,1356.00
2023-05-03T05:28:04.218Z,1436.00
2023-05-03T05:29:04.204Z,1448.00
2023-05-03T05:30:04.512Z,1428.00
2023-05-03T05:31:04.178Z,1432.00
2023-05-03T05:32:04.338Z,1500.00
2023-05-03T05:33:04.184Z,1600.00
2023-05-03T05:34:04.137Z,1664.00
2023-05-03T05:35:04.128Z,1700.00
2023-05-03T05:36:04.114Z,1732.00
2023-05-03T05:37:04.093Z,1716.00
2023-05-03T05:38:04.108Z,1700.00
2023-05-03T05:39:04.066Z,1768.00
2023-05-03T05:40:04.370Z,1896.00
2023-05-03T05:41:05.236Z,1924.00
2023-05-03T05:42:04.028Z,1940.00
2023-05-03T05:43:04.012Z,1952.00
2023-05-03T05:44:03.999Z,1912.00
2023-05-03T05:45:03.983Z,1896.00
2023-05-03T05:46:03.970Z,1916.00
2023-05-03T05:47:04.430Z,1944.00
2023-05-03T05:48:04.000Z,2032.00
2023-05-03T05:49:03.931Z,2152.00
2023-05-03T05:50:09.561Z,2168.00
2023-05-03T05:51:04.944Z,2168.00
2023-05-03T05:52:03.891Z,2144.00
2023-05-03T05:53:03.880Z,2184.00
2023-05-03T05:54:03.895Z,2232.00
2023-05-03T05:55:03.888Z,2228.00
2023-05-03T05:56:03.861Z,2304.00
2023-05-03T05:57:03.835Z,2308.00
2023-05-03T05:58:03.854Z,2360.00
2023-05-03T05:59:03.799Z,2392.00
2023-05-03T06:00:04.005Z,2428.00
2023-05-03T06:01:03.806Z,2392.00
2023-05-03T06:02:03.794Z,2364.00
2023-05-03T06:03:03.787Z,2388.00
2023-05-03T06:04:03.739Z,2444.00
2023-05-03T06:05:05.546Z,2424.00
2023-05-03T06:06:03.752Z,2360.00
2023-05-03T06:07:03.696Z,2352.00
2023-05-03T06:08:03.685Z,2384.00
2023-05-03T06:09:13.204Z,2408.00
2023-05-03T06:10:05.024Z,2340.00
2023-05-03T06:11:03.647Z,2296.00
2023-05-03T06:12:03.632Z,2336.00
2023-05-03T06:13:03.617Z,2464.00
2023-05-03T06:14:03.931Z,2572.00
2023-05-03T06:15:03.623Z,2616.00
2023-05-03T06:16:03.590Z,2664.00
2023-05-03T06:17:03.584Z,2628.00
2023-05-03T06:18:03.595Z,2644.00
2023-05-03T06:19:03.539Z,2704.00
2023-05-03T06:20:03.838Z,2796.00
2023-05-03T06:21:03.506Z,2836.00
2023-05-03T06:22:03.496Z,2852.00
2023-05-03T06:23:03.502Z,2952.00
2023-05-03T06:24:03.480Z,3012.00
2023-05-03T06:25:03.457Z,3068.00
2023-05-03T06:26:03.472Z,3044.00
2023-05-03T06:27:03.448Z,3092.00
2023-05-03T06:28:03.440Z,3132.00
2023-05-03T06:29:03.403Z,3132.00
2023-05-03T06:30:03.657Z,3200.00
2023-05-03T06:31:03.381Z,3352.00
2023-05-03T06:32:03.359Z,3456.00
2023-05-03T06:33:03.373Z,3440.00
2023-05-03T06:34:03.347Z,3460.00
2023-05-03T06:35:03.378Z,3488.00
2023-05-03T06:36:03.312Z,3528.00
2023-05-03T06:37:03.304Z,3524.00
2023-05-03T06:38:03.288Z,3496.00
2023-05-03T06:39:03.315Z,3572.00
2023-05-03T06:40:03.480Z,3696.00
2023-05-03T06:41:03.241Z,3744.00
2023-05-03T06:42:03.308Z,3736.00
2023-05-03T06:43:03.211Z,3644.00
2023-05-03T06:44:03.351Z,3584.00
2023-05-03T06:45:03.197Z,3556.00
2023-05-03T06:46:03.224Z,3400.00
2023-05-03T06:47:03.696Z,3236.00
2023-05-03T06:48:03.248Z,3188.00
2023-05-03T06:49:03.156Z,3284.00
2023-05-03T06:50:03.302Z,3372.00
2023-05-03T06:51:03.108Z,3444.00
2023-05-03T06:52:03.095Z,3588.00
2023-05-03T06:53:03.226Z,3704.00
2023-05-03T06:54:03.072Z,3788.00
2023-05-03T06:55:03.078Z,3836.00
2023-05-03T06:56:03.340Z,3968.00
2023-05-03T06:57:03.026Z,4052.00
2023-05-03T06:58:03.039Z,4204.00
2023-05-03T06:59:02.994Z,4228.00
2023-05-03T07:00:03.158Z,4132.00
2023-05-03T07:01:02.969Z,4272.00
2023-05-03T07:02:02.994Z,4420.00
2023-05-03T07:03:03.029Z,4484.00
2023-05-03T07:04:03.048Z,4416.00
2023-05-03T07:05:02.917Z,4332.00
2023-05-03T07:06:02.946Z,4280.00
2023-05-03T07:07:02.944Z,4344.00
2023-05-03T07:08:02.876Z,4440.00
2023-05-03T07:09:02.863Z,4424.00
2023-05-03T07:10:03.151Z,4472.00
2023-05-03T07:11:02.836Z,4652.00
2023-05-03T07:12:02.823Z,4920.00
2023-05-03T07:13:02.822Z,5468.00
2023-05-03T07:14:02.822Z,6236.00
2023-05-03T07:15:02.790Z,6984.00
2023-05-03T07:16:03.675Z,7392.00
2023-05-03T07:17:02.780Z,7144.00
2023-05-03T07:18:02.805Z,6988.00
2023-05-03T07:19:02.720Z,6668.00
2023-05-03T07:20:02.914Z,7040.00
2023-05-03T07:21:02.693Z,8112.00
2023-05-03T07:22:02.693Z,9292.00
2023-05-03T07:23:02.675Z,9468.00
2023-05-03T07:24:02.673Z,9372.00
2023-05-03T07:25:02.660Z,9516.00
2023-05-03T07:26:02.636Z,10324.00
2023-05-03T07:27:02.618Z,10128.00
2023-05-03T07:28:02.616Z,10644.00
2023-05-03T07:29:02.589Z,10744.00
2023-05-03T07:30:02.947Z,10956.00
2023-05-03T07:31:02.560Z,10608.00
2023-05-03T07:32:02.554Z,10952.00
2023-05-03T07:33:02.607Z,11908.00
2023-05-03T07:34:02.545Z,11724.00
2023-05-03T07:35:02.506Z,11940.00
2023-05-03T07:36:02.498Z,11036.00
2023-05-03T07:37:02.499Z,10972.00
2023-05-03T07:38:02.474Z,11768.00
2023-05-03T07:39:02.467Z,12772.00
2023-05-03T07:40:02.667Z,12220.00
2023-05-03T07:41:02.434Z,11588.00
2023-05-03T07:42:02.425Z,13020.00
2023-05-03T07:43:02.404Z,13172.00
2023-05-03T07:44:02.424Z,14456.00
2023-05-03T07:45:02.381Z,16896.00
2023-05-03T07:46:02.822Z,28544.00
2023-05-03T07:47:02.351Z,33088.00
2023-05-03T07:48:02.350Z,20320.00
2023-05-03T07:49:02.326Z,34624.00
2023-05-03T07:50:02.535Z,22272.00
2023-05-03T07:51:02.292Z,50848.00
2023-05-03T07:52:02.290Z,24192.00
2023-05-03T07:53:02.269Z,16544.00
2023-05-03T07:54:02.254Z,18400.00
2023-05-03T07:55:02.244Z,24000.00
2023-05-03T07:56:02.229Z,18688.00
2023-05-03T07:57:02.229Z,17280.00
2023-05-03T07:58:02.204Z,20544.00
2023-05-03T07:59:09.124Z,22176.00
2023-05-03T08:00:03.418Z,18528.00
2023-05-03T08:01:02.163Z,18272.00
2023-05-03T08:02:02.294Z,17184.00
2023-05-03T08:03:02.218Z,16512.00
2023-05-03T08:04:02.370Z,16000.00
2023-05-03T08:05:02.318Z,15072.00
2023-05-03T08:06:02.139Z,14568.00
2023-05-03T08:07:02.133Z,14232.00
2023-05-03T08:08:02.072Z,13884.00
2023-05-03T08:09:02.052Z,13888.00
2023-05-03T08:10:02.282Z,14048.00
2023-05-03T08:11:02.035Z,14188.00
2023-05-03T08:12:02.019Z,14412.00
2023-05-03T08:13:02.008Z,14420.00
2023-05-03T08:14:02.007Z,14424.00
2023-05-03T08:15:01.988Z,14372.00
2023-05-03T08:16:02.004Z,14444.00
2023-05-03T08:17:01.955Z,14740.00
2023-05-03T08:18:02.002Z,15552.00
2023-05-03T08:19:01.930Z,16928.00
2023-05-03T08:20:02.389Z,27296.00
2023-05-03T08:21:01.899Z,39232.00
2023-05-03T08:22:01.900Z,47872.00
2023-05-03T08:23:01.887Z,56992.00
2023-05-03T08:24:01.861Z,53984.00
2023-05-03T08:25:01.848Z,58880.00
2023-05-03T08:26:01.838Z,60352.00
2023-05-03T08:27:01.820Z,51744.00
2023-05-03T08:28:01.810Z,57504.00
2023-05-03T08:29:01.960Z,58400.00
2023-05-03T08:30:02.033Z,54400.00
2023-05-03T08:31:01.871Z,53856.00
2023-05-03T08:32:01.757Z,55392.00
2023-05-03T08:33:01.791Z,48032.00
2023-05-03T08:34:01.876Z,51168.00
2023-05-03T08:35:01.724Z,49184.00
2023-05-03T08:36:01.880Z,45312.00
2023-05-03T08:37:01.692Z,48320.00
2023-05-03T08:38:01.686Z,53824.00
2023-05-03T08:39:01.667Z,49856.00
2023-05-03T08:40:01.829Z,50464.00
2023-05-03T08:41:01.659Z,53184.00
2023-05-03T08:42:01.630Z,53536.00
2023-05-03T08:43:01.616Z,57536.00
2023-05-03T08:44:01.599Z,49760.00
2023-05-03T08:45:01.587Z,53184.00
2023-05-03T08:46:01.585Z,57568.00
2023-05-03T08:47:01.618Z,51776.00
2023-05-03T08:48:02.045Z,47360.00
2023-05-03T08:49:01.541Z,50784.00
2023-05-03T08:50:01.858Z,55264.00
2023-05-03T08:51:01.511Z,51104.00
2023-05-03T08:52:01.522Z,51584.00
2023-05-03T08:53:01.494Z,53792.00
2023-05-03T08:54:01.467Z,50560.00
2023-05-03T08:55:01.466Z,60576.00
2023-05-03T08:56:01.464Z,58784.00
2023-05-03T08:57:01.438Z,52640.00
2023-05-03T08:58:01.442Z,58272.00
2023-05-03T08:59:01.404Z,50368.00
2023-05-03T09:00:01.577Z,51424.00
2023-05-03T09:01:01.379Z,65440.00
2023-05-03T09:02:01.393Z,59808.00
2023-05-03T09:03:01.482Z,57344.00
2023-05-03T09:04:01.423Z,64160.00
2023-05-03T09:05:01.529Z,60416.00
2023-05-03T09:06:01.403Z,58816.00
2023-05-03T09:07:01.303Z,60928.00
2023-05-03T09:08:01.296Z,64512.00
2023-05-03T09:09:01.284Z,65248.00
2023-05-03T09:10:01.267Z,64832.00
2023-05-03T09:11:01.253Z,64704.00
2023-05-03T09:12:01.238Z,61408.00
2023-05-03T09:13:01.388Z,60064.00
2023-05-03T09:14:01.219Z,62176.00
2023-05-03T09:15:01.217Z,58880.00
2023-05-03T09:16:01.242Z,64608.00
2023-05-03T09:17:01.327Z,36672.00
2023-05-03T09:18:01.177Z,67456.00
2023-05-03T09:19:01.166Z,67936.00
2023-05-03T09:20:01.506Z,66176.00
2023-05-03T09:21:01.134Z,67264.00
2023-05-03T09:22:01.341Z,62720.00
2023-05-03T09:23:01.117Z,62336.00
2023-05-03T09:24:01.336Z,64224.00
2023-05-03T09:25:01.078Z,62304.00
2023-05-03T09:26:01.086Z,62208.00
2023-05-03T09:27:01.050Z,66048.00
2023-05-03T09:28:01.043Z,66688.00
2023-05-03T09:29:01.032Z,73184.00
2023-05-03T09:30:01.199Z,37376.00
2023-05-03T09:31:01.005Z,65952.00
2023-05-03T09:32:01.198Z,69664.00
2023-05-03T09:33:01.029Z,51296.00
2023-05-03T09:34:00.980Z,42240.00
2023-05-03T09:35:01.548Z,20128.00
2023-05-03T09:36:00.939Z,15572.00
2023-05-03T09:37:00.938Z,10972.00
2023-05-03T09:38:00.988Z,10472.00
2023-05-03T09:39:00.900Z,13328.00
2023-05-03T09:40:01.019Z,18656.00
2023-05-03T09:41:00.907Z,12136.00
2023-05-03T09:42:00.874Z,17440.00
2023-05-03T09:43:02.125Z,12160.00
2023-05-03T09:44:00.850Z,68160.00
2023-05-03T09:45:00.888Z,18112.00
2023-05-03T09:46:00.842Z,73376.00
2023-05-03T09:47:00.816Z,22592.00
2023-05-03T09:48:00.824Z,76704.00
2023-05-03T09:49:00.779Z,74240.00
2023-05-03T09:50:00.776Z,70816.00
2023-05-03T09:51:00.767Z,69344.00
2023-05-03T09:52:00.731Z,67744.00
2023-05-03T09:53:00.730Z,72352.00
2023-05-03T09:54:00.761Z,69728.00
2023-05-03T09:55:00.795Z,73856.00
2023-05-03T09:56:00.685Z,74976.00
2023-05-03T09:57:00.688Z,67296.00
2023-05-03T09:58:00.661Z,72576.00
2023-05-03T09:59:00.651Z,72416.00
2023-05-03T10:00:00.634Z,64960.00
2023-05-03T10:01:00.633Z,70752.00
2023-05-03T10:02:00.609Z,73088.00
2023-05-03T10:03:00.657Z,72864.00
2023-05-03T10:04:00.648Z,75136.00
2023-05-03T10:05:00.584Z,73536.00
2023-05-03T10:06:00.557Z,71584.00
2023-05-03T10:07:00.567Z,77408.00
2023-05-03T10:08:00.536Z,81344.00
2023-05-03T10:09:00.522Z,72256.00
2023-05-03T10:10:00.578Z,69856.00
2023-05-03T10:11:00.500Z,74240.00
2023-05-03T10:12:00.481Z,71360.00
2023-05-03T10:13:00.473Z,70656.00
2023-05-03T10:14:00.459Z,62464.00
2023-05-03T10:15:00.504Z,60160.00
2023-05-03T10:16:00.595Z,68160.00
2023-05-03T10:17:00.415Z,74848.00
2023-05-03T10:18:00.428Z,71168.00
2023-05-03T10:19:00.400Z,72000.00
2023-05-03T10:20:00.393Z,79104.00
2023-05-03T10:21:00.374Z,69408.00
2023-05-03T10:22:00.362Z,67072.00
2023-05-03T10:23:00.348Z,80320.00
2023-05-03T10:24:00.340Z,74944.00
2023-05-03T10:25:00.693Z,68736.00
2023-05-03T10:26:00.342Z,64800.00
2023-05-03T10:27:00.293Z,74816.00
2023-05-03T10:28:00.278Z,72032.00
2023-05-03T10:29:01.410Z,73984.00
2023-05-03T10:30:00.280Z,74688.00
2023-05-03T10:31:00.356Z,77056.00
2023-05-03T10:32:00.230Z,76992.00
2023-05-03T10:33:00.421Z,71008.00
2023-05-03T10:34:00.235Z,18272.00
2023-05-03T10:35:00.214Z,54336.00
2023-05-03T10:36:00.397Z,11240.00
2023-05-03T10:37:00.181Z,77280.00
2023-05-03T10:38:00.160Z,79744.00
2023-05-03T10:39:00.156Z,79712.00
2023-05-03T10:40:00.165Z,80160.00
2023-05-03T10:41:00.141Z,77344.00
2023-05-03T10:42:00.124Z,74240.00
2023-05-03T10:43:00.160Z,73888.00
2023-05-03T10:44:00.106Z,74368.00
2023-05-03T10:45:00.065Z,76480.00
2023-05-03T10:46:00.150Z,81664.00
2023-05-03T10:47:00.043Z,18144.00
2023-05-03T10:48:00.175Z,23328.00
2023-05-03T10:49:00.030Z,84768.00
2023-05-03T10:50:00.041Z,80800.00
2023-05-03T10:50:59.989Z,78432.00
2023-05-03T10:51:59.977Z,75072.00
2023-05-03T10:52:59.969Z,74496.00
2023-05-03T10:53:59.961Z,12296.00
2023-05-03T10:54:59.950Z,18176.00
2023-05-03T10:55:59.931Z,66400.00
2023-05-03T10:57:00.040Z,72192.00
2023-05-03T10:57:59.933Z,77248.00
2023-05-03T10:58:59.892Z,75648.00
2023-05-03T10:59:59.881Z,73344.00
2023-05-03T11:00:59.885Z,71296.00
2023-05-03T11:02:00.045Z,76512.00
2023-05-03T11:02:59.907Z,75680.00
2023-05-03T11:03:59.877Z,76672.00
2023-05-03T11:04:59.955Z,74976.00
2023-05-03T11:05:59.808Z,70240.00
2023-05-03T11:06:59.790Z,65696.00
2023-05-03T11:07:59.779Z,71488.00
2023-05-03T11:08:59.763Z,73888.00
2023-05-03T11:09:59.749Z,65280.00
2023-05-03T11:10:59.752Z,68128.00
2023-05-03T11:11:59.729Z,66656.00
2023-05-03T11:12:59.712Z,72384.00
2023-05-03T11:13:59.806Z,79072.00
2023-05-03T11:14:59.693Z,75680.00
2023-05-03T11:15:59.745Z,69152.00
2023-05-03T11:16:59.871Z,68704.00
2023-05-03T11:17:59.668Z,77056.00
2023-05-03T11:18:59.648Z,80864.00
2023-05-03T11:19:59.631Z,70752.00
2023-05-03T11:20:59.623Z,16864.00
2023-05-03T11:21:59.611Z,7824.00
2023-05-03T11:22:59.590Z,7544.00
2023-05-03T11:23:59.579Z,10928.00
2023-05-03T11:24:59.565Z,60544.00
2023-05-03T11:25:59.551Z,68032.00
2023-05-03T11:26:59.544Z,67520.00
2023-05-03T11:28:00.552Z,70944.00
2023-05-03T11:28:59.518Z,72576.00
2023-05-03T11:29:59.582Z,69504.00
2023-05-03T11:30:59.495Z,74656.00
2023-05-03T11:31:59.561Z,83872.00
2023-05-03T11:32:59.484Z,74560.00
2023-05-03T11:33:59.450Z,69440.00
2023-05-03T11:34:59.463Z,21632.00
2023-05-03T11:35:59.429Z,24192.00
2023-05-03T11:36:59.424Z,12832.00
2023-05-03T11:37:59.402Z,20480.00
2023-05-03T11:38:59.387Z,68928.00
2023-05-03T11:39:59.372Z,9276.00
2023-05-03T11:40:59.361Z,12336.00
2023-05-03T11:41:59.348Z,67136.00
2023-05-03T11:42:59.334Z,45248.00
2023-05-03T11:44:14.503Z,20320.00
2023-05-03T11:45:00.339Z,15328.00
2023-05-03T11:45:59.462Z,8276.00
2023-05-03T11:46:59.376Z,8708.00
2023-05-03T11:47:59.323Z,15648.00
2023-05-03T11:48:59.300Z,11724.00
2023-05-03T11:49:59.305Z,12900.00
2023-05-03T11:50:59.278Z,10172.00
2023-05-03T11:51:59.244Z,12820.00
2023-05-03T11:52:59.208Z,13828.00
2023-05-03T11:54:01.259Z,11320.00
2023-05-03T11:54:59.191Z,12340.00
2023-05-03T11:55:59.171Z,12560.00
2023-05-03T11:56:59.733Z,13204.00
2023-05-03T11:57:59.150Z,14228.00
2023-05-03T11:58:59.136Z,27456.00
2023-05-03T11:59:59.129Z,54752.00
2023-05-03T12:00:59.118Z,41568.00
2023-05-03T12:01:59.126Z,56672.00
2023-05-03T12:02:59.328Z,54752.00
2023-05-03T12:03:59.460Z,64608.00
2023-05-03T12:04:59.196Z,61344.00
2023-05-03T12:05:59.374Z,53184.00
2023-05-03T12:07:00.111Z,64864.00
2023-05-03T12:07:59.783Z,66976.00
2023-05-03T12:08:59.727Z,59296.00
2023-05-03T12:10:13.772Z,59744.00
2023-05-03T12:11:02.225Z,36288.00
2023-05-03T12:12:01.484Z,47424.00
2023-05-03T12:13:00.519Z,47136.00
2023-05-03T12:13:59.128Z,38912.00
2023-05-03T12:14:59.345Z,82752.00
2023-05-03T12:16:10.839Z,56224.00
2023-05-03T12:17:00.575Z,59744.00
2023-05-03T12:18:00.257Z,51648.00
2023-05-03T12:19:01.582Z,72256.00
2023-05-03T12:20:31.938Z,31936.00